createdAt,value
2023-04-05T00:01:41.322Z,28.30
2023-04-05T00:04:08.303Z,33.73
2023-04-05T00:06:35.268Z,27.63
2023-04-05T00:09:03.650Z,25.90
2023-04-05T00:11:31.952Z,31.10
2023-04-05T00:14:02.221Z,30.83
2023-04-05T00:16:29.594Z,27.00
2023-04-05T00:18:57.314Z,36.57
2023-04-05T00:21:24.542Z,35.60
2023-04-05T00:23:54.098Z,31.43
2023-04-05T00:26:21.298Z,32.00
2023-04-05T00:28:48.803Z,34.33
2023-04-05T00:31:15.700Z,35.70
2023-04-05T00:33:42.585Z,34.40
2023-04-05T00:36:12.137Z,34.17
2023-04-05T00:38:39.271Z,34.93
2023-04-05T00:41:06.193Z,34.93
2023-04-05T00:43:33.187Z,41.77
2023-04-05T00:46:01.982Z,32.13
2023-04-05T00:48:31.853Z,42.53
2023-04-05T00:50:59.234Z,42.50
2023-04-05T00:53:27.408Z,36.07
2023-04-05T00:55:54.308Z,34.57
2023-04-05T00:58:24.498Z,41.57
2023-04-05T01:01:19.247Z,39.40
2023-04-05T01:03:54.031Z,38.83
2023-04-05T01:06:58.221Z,35.03
2023-04-05T01:09:31.554Z,39.07
2023-04-05T01:11:59.429Z,36.80
2023-04-05T01:14:26.795Z,37.73
2023-04-05T01:16:58.063Z,39.30
2023-04-05T01:19:29.042Z,39.27
2023-04-05T01:22:15.496Z,42.40
2023-04-05T01:24:52.865Z,42.67
2023-04-05T01:27:58.723Z,43.63
2023-04-05T01:30:42.760Z,40.70
2023-04-05T01:33:47.036Z,38.40
2023-04-05T01:36:18.494Z,38.73
2023-04-05T01:38:46.902Z,38.03
2023-04-05T01:41:13.802Z,43.90
2023-04-05T01:43:40.721Z,42.33
2023-04-05T01:46:07.768Z,44.53
2023-04-05T01:48:34.668Z,44.73
2023-04-05T01:51:01.587Z,41.03
2023-04-05T01:53:28.390Z,43.00
2023-04-05T01:56:01.425Z,38.60
2023-04-05T01:58:28.426Z,40.27
2023-04-05T02:00:58.303Z,48.43
2023-04-05T02:03:25.537Z,45.17
2023-04-05T02:05:53.474Z,44.23
2023-04-05T02:08:20.477Z,49.33
2023-04-05T02:10:47.724Z,52.77
2023-04-05T02:13:14.581Z,50.20
2023-04-05T02:15:45.695Z,50.77
2023-04-05T02:18:13.335Z,48.20
2023-04-05T02:20:40.414Z,48.40
2023-04-05T02:23:08.317Z,52.13
2023-04-05T02:25:35.100Z,47.37
2023-04-05T02:28:01.927Z,48.73
2023-04-05T02:30:29.116Z,54.97
2023-04-05T02:32:56.247Z,49.33
2023-04-05T02:35:23.313Z,48.77
2023-04-05T02:37:50.155Z,48.80
2023-04-05T02:40:17.116Z,48.37
2023-04-05T02:42:43.980Z,52.87
2023-04-05T02:45:11.062Z,53.27
2023-04-05T02:47:37.953Z,54.73
2023-04-05T02:50:05.382Z,54.80
2023-04-05T02:52:32.477Z,55.73
2023-04-05T02:54:59.308Z,53.90
2023-04-05T02:57:26.752Z,53.23
2023-04-05T02:59:53.581Z,54.83
2023-04-05T03:02:21.067Z,57.03
2023-04-05T03:04:47.935Z,48.77
2023-04-05T03:07:18.532Z,64.07
2023-04-05T03:09:47.482Z,49.20
2023-04-05T03:12:14.418Z,54.93
2023-04-05T03:14:41.530Z,57.23
2023-04-05T03:17:08.371Z,54.70
2023-04-05T03:19:35.722Z,58.77
2023-04-05T03:22:02.626Z,51.00
2023-04-05T03:24:29.461Z,54.50
2023-04-05T03:26:56.278Z,60.73
2023-04-05T03:29:23.067Z,59.53
2023-04-05T03:31:49.914Z,58.10
2023-04-05T03:34:16.805Z,59.60
2023-04-05T03:36:43.608Z,53.67
2023-04-05T03:39:11.120Z,60.60
2023-04-05T03:41:39.525Z,58.90
2023-04-05T03:44:06.630Z,56.50
2023-04-05T03:46:33.613Z,53.30
2023-04-05T03:49:03.018Z,61.53
2023-04-05T03:51:29.826Z,62.43
2023-04-05T03:53:56.687Z,58.93
2023-04-05T03:56:23.683Z,58.30
2023-04-05T03:58:50.799Z,61.17
2023-04-05T04:01:18.437Z,59.10
2023-04-05T04:03:45.318Z,62.93
2023-04-05T04:06:13.418Z,69.70
2023-04-05T04:08:40.732Z,63.13
2023-04-05T04:11:08.520Z,58.13
2023-04-05T04:13:35.349Z,58.30
2023-04-05T04:16:02.276Z,61.07
2023-04-05T04:18:29.239Z,62.73
2023-04-05T04:20:56.697Z,66.83
2023-04-05T04:23:24.691Z,58.77
2023-04-05T04:25:54.790Z,55.73
2023-04-05T04:28:25.249Z,61.07
2023-04-05T04:30:52.103Z,60.13
2023-04-05T04:33:19.984Z,61.43
2023-04-05T04:35:47.307Z,63.50
2023-04-05T04:38:18.973Z,55.07
2023-04-05T04:40:50.953Z,59.70
2023-04-05T04:43:17.831Z,67.87
2023-04-05T04:45:48.628Z,61.20
2023-04-05T04:48:16.570Z,65.33
2023-04-05T04:50:44.432Z,61.80
2023-04-05T04:53:11.953Z,72.50
2023-04-05T04:55:42.452Z,64.93
2023-04-05T04:58:10.875Z,63.87
2023-04-05T05:00:44.549Z,62.73
2023-04-05T05:03:11.868Z,63.67
2023-04-05T05:05:45.303Z,62.80
2023-04-05T05:08:12.273Z,60.57
2023-04-05T05:10:39.652Z,57.90
2023-04-05T05:13:06.660Z,64.70
2023-04-05T05:15:33.478Z,62.33
2023-04-05T05:18:00.693Z,61.70
2023-04-05T05:20:28.742Z,67.07
2023-04-05T05:22:55.768Z,63.60
2023-04-05T05:25:22.922Z,70.87
2023-04-05T05:27:51.086Z,59.90
2023-04-05T05:30:18.659Z,62.40
2023-04-05T05:32:45.545Z,63.97
2023-04-05T05:35:12.407Z,65.53
2023-04-05T05:37:39.464Z,77.77
2023-04-05T05:40:06.953Z,65.03
2023-04-05T05:42:34.216Z,64.53
2023-04-05T05:45:05.306Z,65.27
2023-04-05T05:47:32.618Z,63.50
2023-04-05T05:49:59.524Z,70.00
2023-04-05T05:52:26.326Z,65.40
2023-04-05T05:54:53.134Z,63.63
2023-04-05T05:57:20.997Z,59.23
2023-04-05T05:59:47.834Z,65.83
2023-04-05T06:02:14.887Z,65.60
2023-04-05T06:04:42.102Z,63.30
2023-04-05T06:07:08.996Z,61.07
2023-04-05T06:09:35.933Z,69.20
2023-04-05T06:12:03.040Z,60.27
2023-04-05T06:14:30.072Z,64.97
2023-04-05T06:16:56.996Z,67.30
2023-04-05T06:19:23.942Z,61.77
2023-04-05T06:21:51.131Z,66.30
2023-04-05T06:24:17.988Z,62.97
2023-04-05T06:26:44.759Z,57.93
2023-04-05T06:29:12.223Z,65.90
2023-04-05T06:31:39.138Z,62.43
2023-04-05T06:34:06.353Z,62.93
2023-04-05T06:36:34.346Z,68.33
2023-04-05T06:39:01.675Z,62.13
2023-04-05T06:41:28.585Z,62.93
2023-04-05T06:43:56.640Z,56.60
2023-04-05T06:46:24.171Z,60.77
2023-04-05T06:48:51.954Z,60.73
2023-04-05T06:51:18.924Z,56.93
2023-04-05T06:53:45.799Z,54.20
2023-04-05T06:56:12.756Z,57.60
2023-04-05T06:58:41.914Z,55.33
2023-04-05T07:01:08.858Z,52.30
2023-04-05T07:03:36.331Z,50.87
2023-04-05T07:06:04.315Z,50.63
2023-04-05T07:08:32.329Z,50.97
2023-04-05T07:10:59.320Z,47.30
2023-04-05T07:13:26.341Z,46.60
2023-04-05T07:15:53.311Z,49.67
2023-04-05T07:18:20.550Z,46.87
2023-04-05T07:20:49.085Z,47.73
2023-04-05T07:23:16.621Z,46.43
2023-04-05T07:25:43.936Z,51.17
2023-04-05T07:28:12.040Z,49.13
2023-04-05T07:30:39.066Z,44.53
2023-04-05T07:33:06.082Z,43.83
2023-04-05T07:35:32.952Z,39.27
2023-04-05T07:37:59.810Z,41.37
2023-04-05T07:40:27.844Z,42.67
2023-04-05T07:42:54.968Z,43.30
2023-04-05T07:45:22.184Z,42.90
2023-04-05T07:47:49.065Z,42.43
2023-04-05T07:50:15.881Z,38.30
2023-04-05T07:52:42.952Z,42.73
2023-04-05T07:55:10.217Z,37.80
2023-04-05T07:57:37.478Z,34.93
2023-04-05T08:00:07.601Z,31.80
2023-04-05T08:02:34.651Z,30.87
2023-04-05T08:05:02.514Z,33.83
2023-04-05T08:07:29.389Z,30.57
2023-04-05T08:09:57.736Z,35.60
2023-04-05T08:12:24.601Z,29.90
2023-04-05T08:14:51.510Z,36.03
2023-04-05T08:17:18.453Z,33.77
2023-04-05T08:19:45.388Z,27.57
2023-04-05T08:22:12.831Z,25.27
2023-04-05T08:24:39.688Z,29.57
2023-04-05T08:27:06.537Z,26.13
2023-04-05T08:29:33.427Z,26.90
2023-04-05T08:32:00.462Z,30.40
2023-04-05T08:34:27.334Z,25.63
2023-04-05T08:36:57.672Z,23.23
2023-04-05T08:39:24.647Z,25.90
2023-04-05T08:41:59.424Z,23.23
2023-04-05T08:44:26.354Z,22.53
2023-04-05T08:46:53.247Z,24.23
2023-04-05T08:49:20.374Z,25.00
2023-04-05T08:51:47.189Z,23.63
2023-04-05T08:54:14.752Z,28.77
2023-04-05T08:56:41.580Z,22.93
2023-04-05T08:59:11.670Z,27.40
2023-04-05T09:01:41.942Z,22.97
2023-04-05T09:04:22.660Z,17.40
2023-04-05T09:06:50.642Z,27.23
2023-04-05T09:09:17.928Z,30.00
2023-04-05T09:11:44.922Z,22.37
2023-04-05T09:14:11.792Z,20.83
2023-04-05T09:16:42.141Z,16.10
2023-04-05T09:19:09.436Z,15.13
2023-04-05T09:21:57.863Z,18.07
2023-04-05T09:24:41.142Z,18.70
2023-04-05T09:27:18.092Z,20.27
2023-04-05T09:29:49.442Z,15.80
2023-04-05T09:32:18.385Z,17.33
2023-04-05T09:34:45.381Z,19.90
2023-04-05T09:37:16.447Z,18.67
2023-04-05T09:39:43.951Z,17.07
2023-04-05T09:42:15.824Z,12.97
2023-04-05T09:44:55.895Z,17.27
2023-04-05T09:47:27.503Z,15.20
2023-04-05T09:49:54.578Z,12.90
2023-04-05T09:52:29.018Z,15.73
2023-04-05T09:55:03.155Z,11.97
2023-04-05T09:57:37.700Z,13.47
2023-04-05T10:00:06.134Z,12.17
2023-04-05T10:02:39.912Z,13.67
2023-04-05T10:05:13.608Z,29.53
2023-04-05T10:07:41.420Z,16.20
2023-04-05T10:10:12.806Z,17.40
2023-04-05T10:12:41.492Z,21.23
2023-04-05T10:15:11.496Z,17.07
2023-04-05T10:18:02.441Z,14.37
2023-04-05T10:20:29.292Z,13.53
2023-04-05T10:23:02.208Z,13.30
2023-04-05T10:25:38.976Z,15.53
2023-04-05T10:28:10.047Z,21.10
2023-04-05T10:30:40.906Z,14.03
2023-04-05T10:33:12.644Z,22.67
2023-04-05T10:35:42.761Z,16.50
2023-04-05T10:38:28.957Z,17.30
2023-04-05T10:40:58.370Z,19.53
2023-04-05T10:43:27.223Z,18.47
2023-04-05T10:45:55.670Z,14.77
2023-04-05T10:49:01.765Z,26.47
2023-04-05T10:51:29.863Z,22.07
2023-04-05T10:53:57.133Z,23.63
2023-04-05T10:56:24.034Z,22.30
2023-04-05T10:58:51.128Z,22.90
2023-04-05T11:01:18.883Z,24.87
2023-04-05T11:03:49.619Z,25.50
2023-04-05T11:06:31.778Z,22.73
2023-04-05T11:09:11.604Z,23.93
2023-04-05T11:11:57.061Z,22.30
2023-04-05T11:14:36.997Z,22.30
2023-04-05T11:17:03.949Z,22.73
2023-04-05T11:19:42.853Z,24.87
2023-04-05T11:22:10.332Z,22.93
2023-04-05T11:24:58.356Z,24.87
2023-04-05T11:27:32.301Z,20.60
2023-04-05T11:30:00.064Z,18.53
2023-04-05T11:32:45.646Z,21.40
2023-04-05T11:35:18.172Z,20.50
2023-04-05T11:37:58.385Z,21.03
2023-04-05T11:40:29.460Z,20.37
2023-04-05T11:43:07.976Z,22.00
2023-04-05T11:45:35.933Z,20.90
2023-04-05T11:48:06.779Z,20.07
2023-04-05T11:50:33.799Z,21.57
2023-04-05T11:53:16.292Z,22.37
2023-04-05T11:55:44.919Z,24.37
2023-04-05T11:58:22.784Z,20.47
2023-04-05T12:01:07.234Z,20.50
2023-04-05T12:03:34.463Z,20.33
2023-04-05T12:06:05.536Z,20.57
2023-04-05T12:08:53.125Z,21.73
2023-04-05T12:11:41.164Z,21.70
2023-04-05T12:14:08.216Z,25.97
2023-04-05T12:16:35.234Z,23.90
2023-04-05T12:19:02.146Z,21.40
2023-04-05T12:21:28.995Z,20.93
2023-04-05T12:23:55.812Z,19.00
2023-04-05T12:26:22.611Z,23.40
2023-04-05T12:28:56.751Z,24.03
2023-04-05T12:31:44.474Z,21.57
2023-04-05T12:34:12.492Z,27.40
2023-04-05T12:36:45.288Z,25.70
2023-04-05T12:39:12.117Z,25.37
2023-04-05T12:41:39.150Z,24.67
2023-04-05T12:44:06.921Z,30.00
2023-04-05T12:46:43.316Z,24.03
2023-04-05T12:49:15.425Z,22.20
2023-04-05T12:51:46.309Z,26.67
2023-04-05T12:54:14.557Z,25.73
2023-04-05T12:56:44.187Z,20.20
2023-04-05T12:59:11.182Z,25.40
2023-04-05T13:01:38.825Z,22.23
2023-04-05T13:04:15.449Z,25.93
2023-04-05T13:06:47.805Z,28.50
2023-04-05T13:09:14.919Z,28.37
2023-04-05T13:11:41.765Z,28.23
2023-04-05T13:14:09.016Z,28.53
2023-04-05T13:16:36.406Z,28.03
2023-04-05T13:19:03.206Z,25.37
2023-04-05T13:21:30.069Z,27.60
2023-04-05T13:23:56.888Z,30.17
2023-04-05T13:26:23.715Z,28.93
2023-04-05T13:28:51.390Z,27.53
2023-04-05T13:31:18.232Z,29.77
2023-04-05T13:33:45.180Z,26.70
2023-04-05T13:36:12.724Z,26.07
2023-04-05T13:38:39.932Z,29.87
2023-04-05T13:41:06.740Z,28.60
2023-04-05T13:43:33.943Z,26.77
2023-04-05T13:46:00.841Z,33.33
2023-04-05T13:48:27.634Z,26.23
2023-04-05T13:50:54.444Z,26.97
2023-04-05T13:53:21.380Z,32.40
2023-04-05T13:55:48.217Z,27.53
2023-04-05T13:58:15.024Z,26.57
2023-04-05T14:00:42.104Z,29.97
2023-04-05T14:03:09.266Z,25.50
2023-04-05T14:05:36.150Z,28.53
2023-04-05T14:08:03.242Z,25.07
2023-04-05T14:10:31.842Z,30.17
2023-04-05T14:12:58.646Z,28.63
2023-04-05T14:15:25.825Z,25.77
2023-04-05T14:17:52.819Z,27.53
2023-04-05T14:20:19.724Z,28.77
2023-04-05T14:22:46.634Z,30.77
2023-04-05T14:25:13.547Z,29.17
2023-04-05T14:27:42.015Z,31.43
2023-04-05T14:30:10.306Z,30.57
2023-04-05T14:32:37.270Z,30.70
2023-04-05T14:35:04.404Z,31.90
2023-04-05T14:37:31.330Z,28.83
2023-04-05T14:39:58.427Z,34.13
2023-04-05T14:42:34.048Z,32.37
2023-04-05T14:45:09.049Z,28.97
2023-04-05T14:47:36.133Z,30.23
2023-04-05T14:50:03.028Z,29.83
2023-04-05T14:52:30.367Z,32.67
2023-04-05T14:54:57.216Z,36.53
2023-04-05T14:57:24.099Z,29.83
2023-04-05T14:59:51.125Z,31.63
2023-04-05T15:02:18.050Z,33.03
2023-04-05T15:04:44.970Z,31.73
2023-04-05T15:07:11.842Z,30.00
2023-04-05T15:09:38.732Z,35.27
2023-04-05T15:12:06.237Z,30.37
2023-04-05T15:14:33.176Z,32.47
2023-04-05T15:17:00.129Z,28.97
2023-04-05T15:19:27.608Z,32.53
2023-04-05T15:21:54.621Z,34.70
2023-04-05T15:24:21.533Z,34.07
2023-04-05T15:26:48.408Z,32.47
2023-04-05T15:29:15.465Z,32.63
2023-04-05T15:31:42.777Z,33.43
2023-04-05T15:34:09.648Z,33.53
2023-04-05T15:36:36.752Z,34.00
2023-04-05T15:39:05.178Z,34.93
2023-04-05T15:41:33.156Z,34.60
2023-04-05T15:44:00.336Z,33.87
2023-04-05T15:46:29.146Z,35.13
2023-04-05T15:48:56.263Z,32.73
2023-04-05T15:51:23.321Z,32.67
2023-04-05T15:53:50.271Z,30.23
2023-04-05T15:56:18.120Z,30.90
2023-04-05T15:58:45.377Z,37.40
2023-04-05T16:01:12.301Z,32.97
2023-04-05T16:03:39.625Z,33.27
2023-04-05T16:06:06.814Z,36.00
2023-04-05T16:08:33.786Z,34.00
2023-04-05T16:11:00.696Z,32.30
2023-04-05T16:13:28.006Z,34.40
2023-04-05T16:15:54.957Z,31.17
2023-04-05T16:18:22.170Z,33.23
2023-04-05T16:20:49.040Z,30.53
2023-04-05T16:23:16.093Z,34.43
2023-04-05T16:25:43.490Z,33.00
2023-04-05T16:28:10.562Z,33.05
2023-04-05T16:30:37.481Z,33.45
2023-04-05T16:33:04.574Z,29.85
2023-04-05T16:35:31.589Z,28.75
2023-04-05T16:37:58.644Z,31.88
2023-04-05T16:40:25.728Z,33.07
2023-04-05T16:42:54.261Z,32.17
2023-04-05T16:45:21.546Z,31.47
2023-04-05T16:47:48.632Z,30.05
2023-04-05T16:50:15.559Z,35.53
2023-04-05T16:52:42.463Z,31.17
2023-04-05T16:55:09.859Z,34.53
2023-04-05T16:57:36.805Z,34.90
2023-04-05T17:00:05.500Z,40.00
2023-04-05T17:02:32.560Z,34.43
2023-04-05T17:04:59.507Z,33.40
2023-04-05T17:07:26.436Z,32.80
2023-04-05T17:09:53.540Z,34.47
2023-04-05T17:12:20.422Z,32.50
2023-04-05T17:14:47.333Z,32.20
2023-04-05T17:17:14.240Z,36.03
2023-04-05T17:19:41.320Z,34.17
2023-04-05T17:22:08.255Z,35.63
2023-04-05T17:24:36.298Z,36.73
2023-04-05T17:27:03.756Z,35.07
2023-04-05T17:29:30.705Z,35.57
2023-04-05T17:31:57.626Z,35.90
2023-04-05T17:34:24.567Z,37.17
2023-04-05T17:36:52.799Z,35.23
2023-04-05T17:39:19.852Z,38.97
2023-04-05T17:41:46.893Z,39.80
2023-04-05T17:44:14.579Z,32.23
2023-04-05T17:46:51.160Z,35.03
2023-04-05T17:49:24.516Z,32.23
2023-04-05T17:51:51.410Z,31.10
2023-04-05T17:54:18.318Z,34.87
2023-04-05T17:56:46.038Z,33.20
2023-04-05T17:59:13.019Z,35.80
2023-04-05T18:01:39.948Z,36.37
2023-04-05T18:04:08.245Z,36.57
2023-04-05T18:06:37.129Z,33.37
2023-04-05T18:09:04.428Z,33.40
2023-04-05T18:11:31.771Z,36.27
2023-04-05T18:13:58.612Z,36.13
2023-04-05T18:16:25.639Z,33.97
2023-04-05T18:18:53.000Z,34.40
2023-04-05T18:21:19.857Z,35.53
2023-04-05T18:23:47.093Z,32.93
2023-04-05T18:26:14.456Z,33.37
2023-04-05T18:28:41.420Z,29.77
2023-04-05T18:31:11.892Z,34.53
2023-04-05T18:33:40.823Z,35.57
2023-04-05T18:36:08.361Z,30.50
2023-04-05T18:38:35.421Z,31.57
2023-04-05T18:41:07.069Z,35.20
2023-04-05T18:43:34.196Z,33.83
2023-04-05T18:46:01.086Z,36.17
2023-04-05T18:48:28.020Z,33.93
2023-04-05T18:50:56.125Z,35.70
2023-04-05T18:53:23.128Z,33.40
2023-04-05T18:55:53.402Z,34.27
2023-04-05T18:58:20.886Z,33.40
2023-04-05T19:00:47.764Z,39.30
2023-04-05T19:03:16.286Z,37.43
2023-04-05T19:05:52.386Z,32.67
2023-04-05T19:08:19.356Z,36.57
2023-04-05T19:10:46.456Z,36.80
2023-04-05T19:13:13.316Z,34.27
2023-04-05T19:15:40.307Z,37.40
2023-04-05T19:18:07.289Z,36.63
2023-04-05T19:20:34.183Z,36.23
2023-04-05T19:23:01.033Z,35.90
2023-04-05T19:25:27.923Z,35.17
2023-04-05T19:27:56.195Z,40.67
2023-04-05T19:30:23.133Z,36.60
2023-04-05T19:32:51.300Z,35.40
2023-04-05T19:35:18.344Z,38.20
2023-04-05T19:37:45.663Z,36.73
2023-04-05T19:40:12.586Z,32.67
2023-04-05T19:42:39.533Z,37.97
2023-04-05T19:45:09.616Z,37.13
2023-04-05T19:47:48.464Z,33.30
2023-04-05T19:50:38.884Z,42.10
2023-04-05T19:53:07.236Z,34.97
2023-04-05T19:55:38.352Z,31.37
2023-04-05T19:58:09.518Z,30.60
2023-04-05T20:00:36.410Z,32.30
2023-04-05T20:03:07.966Z,39.50
2023-04-05T20:05:44.118Z,35.97
2023-04-05T20:08:10.971Z,37.10
2023-04-05T20:10:42.271Z,35.67
2023-04-05T20:13:09.147Z,31.13
2023-04-05T20:15:39.534Z,32.93
2023-04-05T20:18:06.752Z,35.63
2023-04-05T20:20:34.267Z,38.40
2023-04-05T20:23:01.098Z,36.70
2023-04-05T20:25:43.101Z,39.77
2023-04-05T20:28:36.114Z,37.50
2023-04-05T20:31:03.304Z,34.93
2023-04-05T20:33:35.436Z,36.37
2023-04-05T20:36:10.018Z,35.03
2023-04-05T20:38:40.769Z,35.20
2023-04-05T20:41:08.471Z,38.07
2023-04-05T20:43:36.088Z,38.77
2023-04-05T20:46:03.501Z,43.83
2023-04-05T20:48:31.121Z,44.47
2023-04-05T20:50:58.476Z,39.40
2023-04-05T20:53:25.350Z,40.77
2023-04-05T20:55:52.217Z,37.63
2023-04-05T20:58:19.238Z,39.20
2023-04-05T21:00:46.153Z,38.43
2023-04-05T21:03:13.168Z,40.30
2023-04-05T21:05:40.185Z,45.87
2023-04-05T21:08:07.143Z,38.23
2023-04-05T21:10:34.355Z,41.80
2023-04-05T21:13:01.254Z,39.63
2023-04-05T21:15:35.128Z,40.37
2023-04-05T21:18:02.519Z,40.47
2023-04-05T21:20:29.471Z,39.50
2023-04-05T21:22:56.892Z,42.40
2023-04-05T21:25:24.336Z,40.13
2023-04-05T21:27:52.825Z,42.40
2023-04-05T21:30:20.071Z,39.40
2023-04-05T21:32:46.935Z,41.50
2023-04-05T21:35:13.812Z,38.63
2023-04-05T21:37:40.746Z,38.70
2023-04-05T21:40:08.504Z,40.90
2023-04-05T21:42:35.466Z,40.13
2023-04-05T21:45:03.295Z,37.93
2023-04-05T21:47:30.230Z,39.23
2023-04-05T21:49:57.921Z,41.27
2023-04-05T21:52:24.796Z,38.40
2023-04-05T21:54:51.838Z,40.00
2023-04-05T21:57:18.734Z,36.60
2023-04-05T21:59:45.603Z,42.57
2023-04-05T22:02:12.596Z,40.00
2023-04-05T22:04:39.659Z,40.33
2023-04-05T22:07:06.796Z,39.77
2023-04-05T22:09:34.748Z,37.20
2023-04-05T22:12:02.278Z,40.63
2023-04-05T22:14:29.384Z,40.00
2023-04-05T22:16:57.399Z,40.13
2023-04-05T22:19:24.655Z,44.33
2023-04-05T22:21:51.718Z,45.17
2023-04-05T22:24:18.657Z,39.60
2023-04-05T22:26:46.478Z,42.73
2023-04-05T22:29:13.343Z,40.53
2023-04-05T22:31:41.253Z,43.70
2023-04-05T22:34:08.189Z,42.20
2023-04-05T22:36:35.054Z,40.00
2023-04-05T22:39:01.897Z,45.70
2023-04-05T22:41:28.747Z,42.90
2023-04-05T22:43:55.628Z,42.43
2023-04-05T22:46:22.565Z,44.30
2023-04-05T22:48:49.550Z,41.73
2023-04-05T22:51:16.540Z,46.30
2023-04-05T22:53:43.561Z,42.20
2023-04-05T22:56:10.603Z,43.27
2023-04-05T22:58:37.716Z,47.23
2023-04-05T23:01:05.241Z,42.17
2023-04-05T23:03:32.199Z,44.43
2023-04-05T23:05:59.067Z,38.97
2023-04-05T23:08:26.044Z,46.30
2023-04-05T23:10:52.962Z,39.07
2023-04-05T23:13:20.340Z,43.50
2023-04-05T23:15:47.350Z,39.27
2023-04-05T23:18:14.380Z,42.93
2023-04-05T23:20:41.590Z,40.17
2023-04-05T23:23:09.674Z,42.47
2023-04-05T23:25:36.510Z,44.20
2023-04-05T23:28:03.359Z,45.13
2023-04-05T23:30:30.242Z,45.53
2023-04-05T23:32:57.237Z,44.83
2023-04-05T23:35:24.184Z,43.53
2023-04-05T23:37:51.317Z,43.70
2023-04-05T23:40:18.290Z,43.67
2023-04-05T23:42:45.296Z,45.70
2023-04-05T23:45:13.413Z,44.73
2023-04-05T23:47:40.698Z,42.50
2023-04-05T23:50:08.492Z,47.57
2023-04-05T23:52:36.379Z,46.97
2023-04-05T23:55:03.296Z,47.73
2023-04-05T23:57:30.153Z,49.57
2023-04-05T23:59:57.019Z,47.20
